YCAR

Carnarvon Airport

Airport
ICAO code
YCAR
IATA Code
CVQ
Summary
ICAO Region
APAC
ICAO Territory
Location

, Western Australia

Serving
Carnarvon
Elevation
13 ft
Coordinates
24° 52' 50" S , 113° 40' 19" E
Metar
Observation
YCAR 081600Z AUTO 18009KT 9999 // SCT025 BKN033 OVC045 16/15 Q1017
Station
Carnarvon Airport
Date/Time
2022-08-08 16:00:00
Wind direction
180°
Wind speed
09 kts
Lowest cloud amount
scattered clouds
Temperature
16°C
Dew point
15°C
Humidity
93%
QNH
1017 hPa
Weather condition
n/a

Airport map

Aerial View

SKYbrary Partners:

Safety knowledge contributed by: